sensor_id;sensor_type;location;lat;lon;timestamp;P1;durP1;ratioP1;P2;durP2;ratioP2
28427;SDS011;15662;49.128;8.520;2022-07-09T00:02:09;8.38;;;2.80;;
28427;SDS011;15662;49.128;8.520;2022-07-09T00:04:37;6.00;;;2.92;;
28427;SDS011;15662;49.128;8.520;2022-07-09T00:07:05;5.97;;;2.83;;
28427;SDS011;15662;49.128;8.520;2022-07-09T00:09:33;8.13;;;2.97;;
28427;SDS011;15662;49.128;8.520;2022-07-09T00:12:01;5.28;;;2.72;;
28427;SDS011;15662;49.128;8.520;2022-07-09T00:14:29;4.25;;;2.67;;
28427;SDS011;15662;49.128;8.520;2022-07-09T00:16:57;6.25;;;2.42;;
28427;SDS011;15662;49.128;8.520;2022-07-09T00:19:25;4.30;;;2.40;;
28427;SDS011;15662;49.128;8.520;2022-07-09T00:21:53;8.07;;;2.65;;
28427;SDS011;15662;49.128;8.520;2022-07-09T00:24:21;6.85;;;2.50;;
28427;SDS011;15662;49.128;8.520;2022-07-09T00:26:49;7.38;;;2.75;;
28427;SDS011;15662;49.128;8.520;2022-07-09T00:29:17;4.60;;;2.55;;
28427;SDS011;15662;49.128;8.520;2022-07-09T00:31:45;4.18;;;2.38;;
28427;SDS011;15662;49.128;8.520;2022-07-09T00:34:13;4.10;;;2.60;;
28427;SDS011;15662;49.128;8.520;2022-07-09T00:36:41;3.75;;;2.33;;
28427;SDS011;15662;49.128;8.520;2022-07-09T00:39:09;6.07;;;2.50;;
28427;SDS011;15662;49.128;8.520;2022-07-09T00:41:36;5.38;;;2.65;;
28427;SDS011;15662;49.128;8.520;2022-07-09T00:44:04;3.30;;;2.35;;
28427;SDS011;15662;49.128;8.520;2022-07-09T00:46:32;5.40;;;2.47;;
28427;SDS011;15662;49.128;8.520;2022-07-09T00:49:00;3.97;;;2.58;;
28427;SDS011;15662;49.128;8.520;2022-07-09T00:51:31;6.05;;;2.35;;
28427;SDS011;15662;49.128;8.520;2022-07-09T00:53:59;3.92;;;2.15;;
28427;SDS011;15662;49.128;8.520;2022-07-09T00:56:28;2.65;;;2.20;;
28427;SDS011;15662;49.128;8.520;2022-07-09T00:58:57;5.53;;;2.50;;
28427;SDS011;15662;49.128;8.520;2022-07-09T01:01:26;4.38;;;2.67;;
28427;SDS011;15662;49.128;8.520;2022-07-09T01:03:54;2.53;;;1.90;;
28427;SDS011;15662;49.128;8.520;2022-07-09T01:06:22;5.75;;;2.25;;
28427;SDS011;15662;49.128;8.520;2022-07-09T01:08:50;6.60;;;2.60;;
28427;SDS011;15662;49.128;8.520;2022-07-09T01:11:19;2.13;;;1.95;;
28427;SDS011;15662;49.128;8.520;2022-07-09T01:13:47;2.60;;;1.90;;
28427;SDS011;15662;49.128;8.520;2022-07-09T01:16:17;3.20;;;1.90;;
28427;SDS011;15662;49.128;8.520;2022-07-09T01:18:46;2.85;;;2.00;;
28427;SDS011;15662;49.128;8.520;2022-07-09T01:21:14;4.20;;;1.95;;
28427;SDS011;15662;49.128;8.520;2022-07-09T01:23:43;5.72;;;2.10;;
28427;SDS011;15662;49.128;8.520;2022-07-09T01:26:11;2.00;;;1.85;;
28427;SDS011;15662;49.128;8.520;2022-07-09T01:28:39;3.30;;;1.92;;
28427;SDS011;15662;49.128;8.520;2022-07-09T01:31:08;2.05;;;1.70;;
28427;SDS011;15662;49.128;8.520;2022-07-09T01:33:36;2.00;;;1.70;;
28427;SDS011;15662;49.128;8.520;2022-07-09T01:36:04;3.88;;;1.88;;
28427;SDS011;15662;49.128;8.520;2022-07-09T01:38:33;4.20;;;1.70;;
28427;SDS011;15662;49.128;8.520;2022-07-09T01:41:02;4.15;;;2.00;;
28427;SDS011;15662;49.128;8.520;2022-07-09T01:43:30;4.45;;;1.90;;
28427;SDS011;15662;49.128;8.520;2022-07-09T01:46:00;6.07;;;1.85;;
28427;SDS011;15662;49.128;8.520;2022-07-09T01:48:28;4.00;;;2.10;;
28427;SDS011;15662;49.128;8.520;2022-07-09T01:50:57;4.45;;;2.00;;
28427;SDS011;15662;49.128;8.520;2022-07-09T01:53:26;2.90;;;1.73;;
28427;SDS011;15662;49.128;8.520;2022-07-09T01:55:54;1.77;;;1.67;;
28427;SDS011;15662;49.128;8.520;2022-07-09T01:58:22;2.88;;;1.60;;
28427;SDS011;15662;49.128;8.520;2022-07-09T02:00:50;3.83;;;1.60;;
28427;SDS011;15662;49.128;8.520;2022-07-09T02:03:18;3.15;;;1.50;;
28427;SDS011;15662;49.128;8.520;2022-07-09T02:05:46;9.32;;;1.95;;
28427;SDS011;15662;49.128;8.520;2022-07-09T02:08:14;3.17;;;1.85;;
28427;SDS011;15662;49.128;8.520;2022-07-09T02:10:42;2.45;;;1.73;;
28427;SDS011;15662;49.128;8.520;2022-07-09T02:13:10;5.68;;;2.10;;
28427;SDS011;15662;49.128;8.520;2022-07-09T02:15:38;2.15;;;1.73;;
28427;SDS011;15662;49.128;8.520;2022-07-09T02:18:06;5.93;;;2.03;;
28427;SDS011;15662;49.128;8.520;2022-07-09T02:20:34;2.83;;;1.60;;
28427;SDS011;15662;49.128;8.520;2022-07-09T02:23:02;3.97;;;1.85;;
28427;SDS011;15662;49.128;8.520;2022-07-09T02:25:30;3.97;;;1.75;;
28427;SDS011;15662;49.128;8.520;2022-07-09T02:27:58;12.60;;;2.15;;
28427;SDS011;15662;49.128;8.520;2022-07-09T02:30:27;48.05;;;5.45;;
28427;SDS011;15662;49.128;8.520;2022-07-09T02:32:55;48.05;;;4.70;;
28427;SDS011;15662;49.128;8.520;2022-07-09T02:35:23;48.75;;;4.85;;
28427;SDS011;15662;49.128;8.520;2022-07-09T02:37:51;46.47;;;5.38;;
28427;SDS011;15662;49.128;8.520;2022-07-09T02:40:19;45.88;;;4.25;;
28427;SDS011;15662;49.128;8.520;2022-07-09T02:42:47;9.93;;;2.30;;
28427;SDS011;15662;49.128;8.520;2022-07-09T02:45:15;5.43;;;2.22;;
28427;SDS011;15662;49.128;8.520;2022-07-09T02:47:43;8.63;;;2.53;;
28427;SDS011;15662;49.128;8.520;2022-07-09T02:50:11;5.55;;;1.80;;
28427;SDS011;15662;49.128;8.520;2022-07-09T02:52:39;4.35;;;2.05;;
28427;SDS011;15662;49.128;8.520;2022-07-09T02:55:07;7.15;;;2.28;;
28427;SDS011;15662;49.128;8.520;2022-07-09T02:57:35;2.38;;;1.90;;
28427;SDS011;15662;49.128;8.520;2022-07-09T03:00:03;4.70;;;2.00;;
28427;SDS011;15662;49.128;8.520;2022-07-09T03:02:32;2.63;;;1.80;;
28427;SDS011;15662;49.128;8.520;2022-07-09T03:05:00;2.92;;;1.70;;
28427;SDS011;15662;49.128;8.520;2022-07-09T03:07:28;6.43;;;1.70;;
28427;SDS011;15662;49.128;8.520;2022-07-09T03:09:56;8.73;;;2.10;;
28427;SDS011;15662;49.128;8.520;2022-07-09T03:12:24;5.22;;;2.10;;
28427;SDS011;15662;49.128;8.520;2022-07-09T03:14:52;5.72;;;1.90;;
28427;SDS011;15662;49.128;8.520;2022-07-09T03:17:20;4.57;;;1.55;;
28427;SDS011;15662;49.128;8.520;2022-07-09T03:19:48;4.85;;;1.48;;
28427;SDS011;15662;49.128;8.520;2022-07-09T03:22:16;3.38;;;1.70;;
28427;SDS011;15662;49.128;8.520;2022-07-09T03:24:44;3.53;;;1.80;;
28427;SDS011;15662;49.128;8.520;2022-07-09T03:27:12;5.82;;;1.73;;
28427;SDS011;15662;49.128;8.520;2022-07-09T03:29:40;2.10;;;1.63;;
28427;SDS011;15662;49.128;8.520;2022-07-09T03:32:08;2.00;;;1.80;;
28427;SDS011;15662;49.128;8.520;2022-07-09T03:34:36;3.90;;;1.98;;
28427;SDS011;15662;49.128;8.520;2022-07-09T03:37:04;3.53;;;2.00;;
28427;SDS011;15662;49.128;8.520;2022-07-09T03:39:32;2.25;;;1.60;;
28427;SDS011;15662;49.128;8.520;2022-07-09T03:42:01;3.20;;;1.85;;
28427;SDS011;15662;49.128;8.520;2022-07-09T03:44:30;3.42;;;1.80;;
28427;SDS011;15662;49.128;8.520;2022-07-09T03:46:58;4.90;;;1.80;;
28427;SDS011;15662;49.128;8.520;2022-07-09T03:49:26;3.53;;;2.00;;
28427;SDS011;15662;49.128;8.520;2022-07-09T03:51:54;2.80;;;1.90;;
28427;SDS011;15662;49.128;8.520;2022-07-09T03:54:40;2.95;;;1.80;;
28427;SDS011;15662;49.128;8.520;2022-07-09T03:57:08;2.30;;;1.70;;
28427;SDS011;15662;49.128;8.520;2022-07-09T03:59:37;3.75;;;1.73;;
28427;SDS011;15662;49.128;8.520;2022-07-09T04:02:05;2.65;;;1.73;;
28427;SDS011;15662;49.128;8.520;2022-07-09T04:04:39;2.08;;;1.75;;
28427;SDS011;15662;49.128;8.520;2022-07-09T04:07:08;4.18;;;1.80;;
28427;SDS011;15662;49.128;8.520;2022-07-09T04:09:36;1.80;;;1.70;;
28427;SDS011;15662;49.128;8.520;2022-07-09T04:12:04;2.10;;;1.73;;
28427;SDS011;15662;49.128;8.520;2022-07-09T04:14:32;1.90;;;1.60;;
28427;SDS011;15662;49.128;8.520;2022-07-09T04:17:01;2.22;;;1.98;;
28427;SDS011;15662;49.128;8.520;2022-07-09T04:19:29;3.03;;;1.80;;
28427;SDS011;15662;49.128;8.520;2022-07-09T04:21:57;2.55;;;1.90;;
28427;SDS011;15662;49.128;8.520;2022-07-09T04:24:25;7.10;;;1.92;;
28427;SDS011;15662;49.128;8.520;2022-07-09T04:26:53;1.95;;;1.77;;
28427;SDS011;15662;49.128;8.520;2022-07-09T04:29:21;3.80;;;1.77;;
28427;SDS011;15662;49.128;8.520;2022-07-09T04:31:49;3.78;;;1.50;;
28427;SDS011;15662;49.128;8.520;2022-07-09T04:34:17;3.10;;;1.67;;
28427;SDS011;15662;49.128;8.520;2022-07-09T04:36:45;6.32;;;1.88;;
28427;SDS011;15662;49.128;8.520;2022-07-09T04:39:13;1.83;;;1.65;;
28427;SDS011;15662;49.128;8.520;2022-07-09T04:41:41;2.03;;;1.80;;
28427;SDS011;15662;49.128;8.520;2022-07-09T04:44:09;1.77;;;1.65;;
28427;SDS011;15662;49.128;8.520;2022-07-09T04:46:42;2.92;;;1.92;;
28427;SDS011;15662;49.128;8.520;2022-07-09T04:49:30;2.17;;;1.98;;
28427;SDS011;15662;49.128;8.520;2022-07-09T04:52:24;2.28;;;1.92;;
28427;SDS011;15662;49.128;8.520;2022-07-09T04:54:53;3.25;;;1.98;;
28427;SDS011;15662;49.128;8.520;2022-07-09T04:57:21;3.15;;;1.92;;
28427;SDS011;15662;49.128;8.520;2022-07-09T04:59:49;7.00;;;2.00;;
28427;SDS011;15662;49.128;8.520;2022-07-09T05:02:17;8.85;;;2.05;;
28427;SDS011;15662;49.128;8.520;2022-07-09T05:04:45;3.70;;;1.92;;
28427;SDS011;15662;49.128;8.520;2022-07-09T05:07:13;3.13;;;2.00;;
28427;SDS011;15662;49.128;8.520;2022-07-09T05:09:41;2.15;;;1.80;;
28427;SDS011;15662;49.128;8.520;2022-07-09T05:12:09;3.08;;;1.67;;
28427;SDS011;15662;49.128;8.520;2022-07-09T05:14:37;2.10;;;1.70;;
28427;SDS011;15662;49.128;8.520;2022-07-09T05:17:05;5.80;;;1.80;;
28427;SDS011;15662;49.128;8.520;2022-07-09T05:19:34;2.88;;;2.00;;
28427;SDS011;15662;49.128;8.520;2022-07-09T05:22:02;4.38;;;2.00;;
28427;SDS011;15662;49.128;8.520;2022-07-09T05:24:30;2.95;;;1.92;;
28427;SDS011;15662;49.128;8.520;2022-07-09T05:26:59;2.67;;;2.00;;
28427;SDS011;15662;49.128;8.520;2022-07-09T05:29:27;3.38;;;2.05;;
28427;SDS011;15662;49.128;8.520;2022-07-09T05:31:54;2.95;;;1.70;;
28427;SDS011;15662;49.128;8.520;2022-07-09T05:34:24;3.05;;;2.00;;
28427;SDS011;15662;49.128;8.520;2022-07-09T05:36:52;5.22;;;2.30;;
28427;SDS011;15662;49.128;8.520;2022-07-09T05:39:22;2.92;;;2.20;;
28427;SDS011;15662;49.128;8.520;2022-07-09T05:41:49;2.78;;;2.13;;
28427;SDS011;15662;49.128;8.520;2022-07-09T05:44:17;2.42;;;2.05;;
28427;SDS011;15662;49.128;8.520;2022-07-09T05:46:51;2.83;;;1.75;;
28427;SDS011;15662;49.128;8.520;2022-07-09T05:49:19;2.97;;;1.60;;
28427;SDS011;15662;49.128;8.520;2022-07-09T05:51:47;4.18;;;1.85;;
28427;SDS011;15662;49.128;8.520;2022-07-09T05:54:15;1.70;;;1.60;;
28427;SDS011;15662;49.128;8.520;2022-07-09T05:56:43;1.92;;;1.73;;
28427;SDS011;15662;49.128;8.520;2022-07-09T05:59:11;11.45;;;1.70;;
28427;SDS011;15662;49.128;8.520;2022-07-09T06:01:39;1.95;;;1.60;;
28427;SDS011;15662;49.128;8.520;2022-07-09T06:04:09;2.65;;;1.40;;
28427;SDS011;15662;49.128;8.520;2022-07-09T06:06:37;4.03;;;1.77;;
28427;SDS011;15662;49.128;8.520;2022-07-09T06:09:05;4.03;;;2.03;;
28427;SDS011;15662;49.128;8.520;2022-07-09T06:11:33;3.28;;;1.70;;
28427;SDS011;15662;49.128;8.520;2022-07-09T06:14:01;2.53;;;1.50;;
28427;SDS011;15662;49.128;8.520;2022-07-09T06:16:29;2.58;;;1.80;;
28427;SDS011;15662;49.128;8.520;2022-07-09T06:18:57;3.30;;;1.80;;
28427;SDS011;15662;49.128;8.520;2022-07-09T06:21:25;3.70;;;1.80;;
28427;SDS011;15662;49.128;8.520;2022-07-09T06:23:53;3.17;;;2.10;;
28427;SDS011;15662;49.128;8.520;2022-07-09T06:26:21;2.80;;;1.98;;
28427;SDS011;15662;49.128;8.520;2022-07-09T06:28:49;2.28;;;1.50;;
28427;SDS011;15662;49.128;8.520;2022-07-09T06:31:17;2.92;;;1.75;;
28427;SDS011;15662;49.128;8.520;2022-07-09T06:33:45;3.15;;;1.63;;
28427;SDS011;15662;49.128;8.520;2022-07-09T06:36:13;7.05;;;1.70;;
28427;SDS011;15662;49.128;8.520;2022-07-09T06:38:41;2.58;;;1.58;;
28427;SDS011;15662;49.128;8.520;2022-07-09T06:41:27;2.38;;;1.70;;
28427;SDS011;15662;49.128;8.520;2022-07-09T06:43:55;1.42;;;1.33;;
28427;SDS011;15662;49.128;8.520;2022-07-09T06:46:23;3.30;;;1.83;;
28427;SDS011;15662;49.128;8.520;2022-07-09T06:48:51;3.28;;;1.70;;
28427;SDS011;15662;49.128;8.520;2022-07-09T06:51:19;2.58;;;1.52;;
28427;SDS011;15662;49.128;8.520;2022-07-09T06:53:47;2.38;;;1.70;;
28427;SDS011;15662;49.128;8.520;2022-07-09T06:56:15;1.63;;;1.38;;
28427;SDS011;15662;49.128;8.520;2022-07-09T06:58:43;2.80;;;1.60;;
28427;SDS011;15662;49.128;8.520;2022-07-09T07:01:11;2.35;;;1.60;;
28427;SDS011;15662;49.128;8.520;2022-07-09T07:03:39;3.05;;;1.60;;
28427;SDS011;15662;49.128;8.520;2022-07-09T07:06:07;3.33;;;1.70;;
28427;SDS011;15662;49.128;8.520;2022-07-09T07:08:35;2.00;;;1.40;;
28427;SDS011;15662;49.128;8.520;2022-07-09T07:11:04;4.63;;;1.80;;
28427;SDS011;15662;49.128;8.520;2022-07-09T07:13:32;1.85;;;1.70;;
28427;SDS011;15662;49.128;8.520;2022-07-09T07:16:00;3.50;;;1.50;;
28427;SDS011;15662;49.128;8.520;2022-07-09T07:18:28;2.05;;;1.65;;
28427;SDS011;15662;49.128;8.520;2022-07-09T07:20:56;1.65;;;1.35;;
28427;SDS011;15662;49.128;8.520;2022-07-09T07:23:24;2.92;;;1.50;;
28427;SDS011;15662;49.128;8.520;2022-07-09T07:25:51;3.08;;;1.40;;
28427;SDS011;15662;49.128;8.520;2022-07-09T07:28:19;2.13;;;1.33;;
28427;SDS011;15662;49.128;8.520;2022-07-09T07:30:47;3.80;;;1.50;;
28427;SDS011;15662;49.128;8.520;2022-07-09T07:33:15;1.77;;;1.40;;
28427;SDS011;15662;49.128;8.520;2022-07-09T07:35:43;1.25;;;1.15;;
28427;SDS011;15662;49.128;8.520;2022-07-09T07:38:12;3.75;;;1.25;;
28427;SDS011;15662;49.128;8.520;2022-07-09T07:40:40;2.33;;;1.30;;
28427;SDS011;15662;49.128;8.520;2022-07-09T07:43:09;1.70;;;1.20;;
28427;SDS011;15662;49.128;8.520;2022-07-09T07:45:38;1.35;;;1.20;;
28427;SDS011;15662;49.128;8.520;2022-07-09T07:48:06;1.92;;;1.23;;
28427;SDS011;15662;49.128;8.520;2022-07-09T07:50:34;2.00;;;1.00;;
28427;SDS011;15662;49.128;8.520;2022-07-09T07:53:05;1.25;;;1.15;;
28427;SDS011;15662;49.128;8.520;2022-07-09T07:55:34;2.05;;;1.20;;
28427;SDS011;15662;49.128;8.520;2022-07-09T07:58:02;1.02;;;0.90;;
28427;SDS011;15662;49.128;8.520;2022-07-09T08:00:30;1.45;;;1.00;;
28427;SDS011;15662;49.128;8.520;2022-07-09T08:02:58;3.45;;;1.00;;
28427;SDS011;15662;49.128;8.520;2022-07-09T08:05:26;2.13;;;1.00;;
28427;SDS011;15662;49.128;8.520;2022-07-09T08:07:54;1.10;;;1.00;;
28427;SDS011;15662;49.128;8.520;2022-07-09T08:10:22;1.30;;;1.10;;
28427;SDS011;15662;49.128;8.520;2022-07-09T08:12:51;1.83;;;1.20;;
28427;SDS011;15662;49.128;8.520;2022-07-09T08:15:20;1.33;;;0.93;;
28427;SDS011;15662;49.128;8.520;2022-07-09T08:17:48;1.50;;;0.80;;
28427;SDS011;15662;49.128;8.520;2022-07-09T08:20:16;1.80;;;0.90;;
28427;SDS011;15662;49.128;8.520;2022-07-09T08:22:44;2.92;;;0.90;;
28427;SDS011;15662;49.128;8.520;2022-07-09T08:25:12;1.88;;;0.90;;
28427;SDS011;15662;49.128;8.520;2022-07-09T08:27:41;4.35;;;0.90;;
28427;SDS011;15662;49.128;8.520;2022-07-09T08:30:10;1.42;;;0.80;;
28427;SDS011;15662;49.128;8.520;2022-07-09T08:32:38;0.93;;;0.90;;
28427;SDS011;15662;49.128;8.520;2022-07-09T08:35:06;2.17;;;0.90;;
28427;SDS011;15662;49.128;8.520;2022-07-09T08:37:35;1.40;;;0.90;;
28427;SDS011;15662;49.128;8.520;2022-07-09T08:40:05;1.63;;;1.02;;
28427;SDS011;15662;49.128;8.520;2022-07-09T08:42:34;2.65;;;0.95;;
28427;SDS011;15662;49.128;8.520;2022-07-09T08:45:03;1.25;;;0.77;;
28427;SDS011;15662;49.128;8.520;2022-07-09T08:47:38;1.25;;;0.90;;
28427;SDS011;15662;49.128;8.520;2022-07-09T08:50:07;1.05;;;0.93;;
28427;SDS011;15662;49.128;8.520;2022-07-09T08:52:37;2.10;;;0.90;;
28427;SDS011;15662;49.128;8.520;2022-07-09T08:55:08;3.42;;;1.05;;
28427;SDS011;15662;49.128;8.520;2022-07-09T08:57:37;0.90;;;0.55;;
28427;SDS011;15662;49.128;8.520;2022-07-09T09:00:05;0.80;;;0.60;;
28427;SDS011;15662;49.128;8.520;2022-07-09T09:02:35;1.08;;;0.80;;
28427;SDS011;15662;49.128;8.520;2022-07-09T09:05:13;1.23;;;0.68;;
28427;SDS011;15662;49.128;8.520;2022-07-09T09:07:42;3.55;;;0.70;;
28427;SDS011;15662;49.128;8.520;2022-07-09T09:10:23;0.80;;;0.70;;
28427;SDS011;15662;49.128;8.520;2022-07-09T09:12:59;12.48;;;1.45;;
28427;SDS011;15662;49.128;8.520;2022-07-09T09:15:29;0.98;;;0.70;;
28427;SDS011;15662;49.128;8.520;2022-07-09T09:17:57;1.20;;;0.75;;
28427;SDS011;15662;49.128;8.520;2022-07-09T09:20:25;2.25;;;0.80;;
28427;SDS011;15662;49.128;8.520;2022-07-09T09:22:53;1.38;;;0.82;;
28427;SDS011;15662;49.128;8.520;2022-07-09T09:25:27;0.80;;;0.80;;
28427;SDS011;15662;49.128;8.520;2022-07-09T09:27:58;1.90;;;0.80;;
28427;SDS011;15662;49.128;8.520;2022-07-09T09:30:27;2.28;;;0.93;;
28427;SDS011;15662;49.128;8.520;2022-07-09T09:33:02;4.20;;;0.93;;
28427;SDS011;15662;49.128;8.520;2022-07-09T09:35:34;1.40;;;0.80;;
28427;SDS011;15662;49.128;8.520;2022-07-09T09:38:08;2.22;;;0.70;;
28427;SDS011;15662;49.128;8.520;2022-07-09T09:40:37;1.35;;;0.70;;
28427;SDS011;15662;49.128;8.520;2022-07-09T09:43:13;0.93;;;0.68;;
28427;SDS011;15662;49.128;8.520;2022-07-09T09:45:56;3.08;;;0.68;;
28427;SDS011;15662;49.128;8.520;2022-07-09T09:48:52;1.52;;;0.60;;
28427;SDS011;15662;49.128;8.520;2022-07-09T09:53:56;0.40;;;0.40;;
28427;SDS011;15662;49.128;8.520;2022-07-09T09:56:25;1.17;;;0.40;;
28427;SDS011;15662;49.128;8.520;2022-07-09T09:58:55;1.10;;;0.60;;
28427;SDS011;15662;49.128;8.520;2022-07-09T10:01:25;0.68;;;0.50;;
28427;SDS011;15662;49.128;8.520;2022-07-09T10:03:55;0.95;;;0.50;;
28427;SDS011;15662;49.128;8.520;2022-07-09T10:06:24;0.47;;;0.47;;
28427;SDS011;15662;49.128;8.520;2022-07-09T10:08:54;2.25;;;0.60;;
28427;SDS011;15662;49.128;8.520;2022-07-09T10:11:23;0.80;;;0.45;;
28427;SDS011;15662;49.128;8.520;2022-07-09T10:13:52;0.88;;;0.40;;
28427;SDS011;15662;49.128;8.520;2022-07-09T10:16:36;1.20;;;0.60;;
28427;SDS011;15662;49.128;8.520;2022-07-09T10:19:06;1.45;;;0.65;;
28427;SDS011;15662;49.128;8.520;2022-07-09T10:21:35;1.50;;;0.60;;
28427;SDS011;15662;49.128;8.520;2022-07-09T10:24:29;1.52;;;0.70;;
28427;SDS011;15662;49.128;8.520;2022-07-09T10:27:08;0.65;;;0.50;;
28427;SDS011;15662;49.128;8.520;2022-07-09T10:29:52;2.33;;;0.80;;
28427;SDS011;15662;49.128;8.520;2022-07-09T10:32:31;1.48;;;0.90;;
28427;SDS011;15662;49.128;8.520;2022-07-09T10:35:00;0.75;;;0.75;;
28427;SDS011;15662;49.128;8.520;2022-07-09T10:37:34;1.10;;;0.85;;
28427;SDS011;15662;49.128;8.520;2022-07-09T10:40:13;0.73;;;0.73;;
28427;SDS011;15662;49.128;8.520;2022-07-09T10:42:44;1.10;;;0.70;;
28427;SDS011;15662;49.128;8.520;2022-07-09T10:45:26;1.63;;;0.68;;
28427;SDS011;15662;49.128;8.520;2022-07-09T10:48:16;1.13;;;0.70;;
28427;SDS011;15662;49.128;8.520;2022-07-09T10:50:44;1.98;;;0.70;;
28427;SDS011;15662;49.128;8.520;2022-07-09T10:55:56;0.60;;;0.60;;
28427;SDS011;15662;49.128;8.520;2022-07-09T10:58:25;1.67;;;0.88;;
28427;SDS011;15662;49.128;8.520;2022-07-09T11:00:58;1.05;;;0.70;;
28427;SDS011;15662;49.128;8.520;2022-07-09T11:03:28;2.60;;;0.77;;
28427;SDS011;15662;49.128;8.520;2022-07-09T11:05:58;1.23;;;0.70;;
28427;SDS011;15662;49.128;8.520;2022-07-09T11:08:26;3.33;;;0.70;;
28427;SDS011;15662;49.128;8.520;2022-07-09T11:10:54;0.82;;;0.70;;
28427;SDS011;15662;49.128;8.520;2022-07-09T11:13:23;0.88;;;0.85;;
28427;SDS011;15662;49.128;8.520;2022-07-09T11:15:58;0.93;;;0.80;;
28427;SDS011;15662;49.128;8.520;2022-07-09T11:18:30;0.93;;;0.70;;
28427;SDS011;15662;49.128;8.520;2022-07-09T11:20:59;1.17;;;1.08;;
28427;SDS011;15662;49.128;8.520;2022-07-09T11:23:27;1.02;;;0.77;;
28427;SDS011;15662;49.128;8.520;2022-07-09T11:25:55;1.00;;;0.93;;
28427;SDS011;15662;49.128;8.520;2022-07-09T11:28:23;0.90;;;0.90;;
28427;SDS011;15662;49.128;8.520;2022-07-09T11:31:03;1.27;;;0.70;;
28427;SDS011;15662;49.128;8.520;2022-07-09T11:33:32;0.93;;;0.85;;
28427;SDS011;15662;49.128;8.520;2022-07-09T11:36:22;0.80;;;0.80;;
28427;SDS011;15662;49.128;8.520;2022-07-09T11:38:50;1.15;;;0.90;;
28427;SDS011;15662;49.128;8.520;2022-07-09T11:41:20;4.93;;;1.23;;
28427;SDS011;15662;49.128;8.520;2022-07-09T11:43:48;2.10;;;0.80;;
28427;SDS011;15662;49.128;8.520;2022-07-09T11:46:18;0.85;;;0.85;;
28427;SDS011;15662;49.128;8.520;2022-07-09T11:48:54;1.48;;;0.90;;
28427;SDS011;15662;49.128;8.520;2022-07-09T11:54:00;0.82;;;0.70;;
28427;SDS011;15662;49.128;8.520;2022-07-09T11:56:41;1.73;;;0.90;;
28427;SDS011;15662;49.128;8.520;2022-07-09T11:59:12;2.10;;;0.73;;
28427;SDS011;15662;49.128;8.520;2022-07-09T12:01:52;1.55;;;0.90;;
28427;SDS011;15662;49.128;8.520;2022-07-09T12:04:22;0.93;;;0.77;;
28427;SDS011;15662;49.128;8.520;2022-07-09T12:06:50;0.70;;;0.70;;
28427;SDS011;15662;49.128;8.520;2022-07-09T12:09:29;1.02;;;0.80;;
28427;SDS011;15662;49.128;8.520;2022-07-09T12:11:59;2.38;;;0.90;;
28427;SDS011;15662;49.128;8.520;2022-07-09T12:14:27;0.88;;;0.77;;
28427;SDS011;15662;49.128;8.520;2022-07-09T12:16:57;1.50;;;0.80;;
28427;SDS011;15662;49.128;8.520;2022-07-09T12:19:25;1.20;;;0.80;;
28427;SDS011;15662;49.128;8.520;2022-07-09T12:21:53;3.38;;;1.00;;
28427;SDS011;15662;49.128;8.520;2022-07-09T12:24:25;1.63;;;0.90;;
28427;SDS011;15662;49.128;8.520;2022-07-09T12:26:53;1.48;;;0.80;;
28427;SDS011;15662;49.128;8.520;2022-07-09T12:29:41;1.63;;;0.90;;
28427;SDS011;15662;49.128;8.520;2022-07-09T12:32:10;1.63;;;0.77;;
28427;SDS011;15662;49.128;8.520;2022-07-09T12:34:38;1.15;;;1.05;;
28427;SDS011;15662;49.128;8.520;2022-07-09T12:37:06;1.10;;;0.80;;
28427;SDS011;15662;49.128;8.520;2022-07-09T12:39:34;1.17;;;0.80;;
28427;SDS011;15662;49.128;8.520;2022-07-09T12:42:02;1.20;;;0.80;;
28427;SDS011;15662;49.128;8.520;2022-07-09T12:44:30;0.90;;;0.90;;
28427;SDS011;15662;49.128;8.520;2022-07-09T12:46:58;0.90;;;0.90;;
28427;SDS011;15662;49.128;8.520;2022-07-09T12:49:27;1.55;;;0.80;;
28427;SDS011;15662;49.128;8.520;2022-07-09T12:51:56;1.60;;;0.80;;
28427;SDS011;15662;49.128;8.520;2022-07-09T12:54:24;0.95;;;0.85;;
28427;SDS011;15662;49.128;8.520;2022-07-09T12:56:52;3.35;;;0.80;;
28427;SDS011;15662;49.128;8.520;2022-07-09T12:59:38;1.17;;;0.95;;
28427;SDS011;15662;49.128;8.520;2022-07-09T13:02:06;1.13;;;0.80;;
28427;SDS011;15662;49.128;8.520;2022-07-09T13:04:34;2.70;;;1.20;;
28427;SDS011;15662;49.128;8.520;2022-07-09T13:07:02;3.60;;;1.00;;
28427;SDS011;15662;49.128;8.520;2022-07-09T13:09:40;1.35;;;0.90;;
28427;SDS011;15662;49.128;8.520;2022-07-09T13:12:33;0.70;;;0.70;;
28427;SDS011;15662;49.128;8.520;2022-07-09T13:15:01;1.38;;;0.80;;
28427;SDS011;15662;49.128;8.520;2022-07-09T13:17:29;0.75;;;0.70;;
28427;SDS011;15662;49.128;8.520;2022-07-09T13:19:59;1.30;;;0.65;;
28427;SDS011;15662;49.128;8.520;2022-07-09T13:22:27;0.85;;;0.77;;
28427;SDS011;15662;49.128;8.520;2022-07-09T13:24:56;1.13;;;0.80;;
28427;SDS011;15662;49.128;8.520;2022-07-09T13:27:25;1.35;;;0.80;;
28427;SDS011;15662;49.128;8.520;2022-07-09T13:29:55;0.75;;;0.55;;
28427;SDS011;15662;49.128;8.520;2022-07-09T13:32:23;0.65;;;0.65;;
28427;SDS011;15662;49.128;8.520;2022-07-09T13:34:51;1.05;;;0.80;;
28427;SDS011;15662;49.128;8.520;2022-07-09T13:37:20;0.85;;;0.80;;
28427;SDS011;15662;49.128;8.520;2022-07-09T13:39:48;2.20;;;1.02;;
28427;SDS011;15662;49.128;8.520;2022-07-09T13:42:16;2.40;;;0.70;;
28427;SDS011;15662;49.128;8.520;2022-07-09T13:44:44;1.88;;;1.20;;
28427;SDS011;15662;49.128;8.520;2022-07-09T13:47:13;1.20;;;0.80;;
28427;SDS011;15662;49.128;8.520;2022-07-09T13:49:41;1.73;;;1.00;;
28427;SDS011;15662;49.128;8.520;2022-07-09T13:52:09;1.42;;;0.95;;
28427;SDS011;15662;49.128;8.520;2022-07-09T13:54:37;0.80;;;0.80;;
28427;SDS011;15662;49.128;8.520;2022-07-09T13:57:05;2.13;;;0.90;;
28427;SDS011;15662;49.128;8.520;2022-07-09T13:59:34;0.90;;;0.80;;
28427;SDS011;15662;49.128;8.520;2022-07-09T14:02:02;0.80;;;0.80;;
28427;SDS011;15662;49.128;8.520;2022-07-09T14:04:30;3.08;;;0.70;;
28427;SDS011;15662;49.128;8.520;2022-07-09T14:06:59;1.30;;;0.70;;
28427;SDS011;15662;49.128;8.520;2022-07-09T14:09:28;0.70;;;0.70;;
28427;SDS011;15662;49.128;8.520;2022-07-09T14:11:55;0.70;;;0.70;;
28427;SDS011;15662;49.128;8.520;2022-07-09T14:14:24;0.73;;;0.73;;
28427;SDS011;15662;49.128;8.520;2022-07-09T14:16:52;2.03;;;0.60;;
28427;SDS011;15662;49.128;8.520;2022-07-09T14:19:20;1.40;;;0.80;;
28427;SDS011;15662;49.128;8.520;2022-07-09T14:21:48;1.17;;;0.90;;
28427;SDS011;15662;49.128;8.520;2022-07-09T14:24:17;1.00;;;0.80;;
28427;SDS011;15662;49.128;8.520;2022-07-09T14:26:45;1.52;;;0.95;;
28427;SDS011;15662;49.128;8.520;2022-07-09T14:29:15;0.80;;;0.80;;
28427;SDS011;15662;49.128;8.520;2022-07-09T14:31:50;1.45;;;0.80;;
28427;SDS011;15662;49.128;8.520;2022-07-09T14:34:18;1.30;;;1.08;;
28427;SDS011;15662;49.128;8.520;2022-07-09T14:36:49;1.05;;;0.80;;
28427;SDS011;15662;49.128;8.520;2022-07-09T14:39:18;0.93;;;0.80;;
28427;SDS011;15662;49.128;8.520;2022-07-09T14:41:48;0.82;;;0.80;;
28427;SDS011;15662;49.128;8.520;2022-07-09T14:44:16;1.55;;;0.85;;
28427;SDS011;15662;49.128;8.520;2022-07-09T14:46:45;2.47;;;0.90;;
28427;SDS011;15662;49.128;8.520;2022-07-09T14:49:14;0.90;;;0.90;;
28427;SDS011;15662;49.128;8.520;2022-07-09T14:51:43;1.50;;;0.90;;
28427;SDS011;15662;49.128;8.520;2022-07-09T14:54:11;1.10;;;1.00;;
28427;SDS011;15662;49.128;8.520;2022-07-09T14:56:40;0.73;;;0.73;;
28427;SDS011;15662;49.128;8.520;2022-07-09T14:59:07;3.90;;;1.00;;
28427;SDS011;15662;49.128;8.520;2022-07-09T15:01:38;0.73;;;0.73;;
28427;SDS011;15662;49.128;8.520;2022-07-09T15:04:06;0.70;;;0.70;;
28427;SDS011;15662;49.128;8.520;2022-07-09T15:06:34;0.80;;;0.75;;
28427;SDS011;15662;49.128;8.520;2022-07-09T15:09:02;1.02;;;0.90;;
28427;SDS011;15662;49.128;8.520;2022-07-09T15:11:31;0.65;;;0.60;;